createdAt,value
2022-10-11T00:02:32.284Z,9.34
2022-10-11T00:07:33.643Z,9.19
2022-10-11T00:12:35.171Z,9.07
2022-10-11T00:17:36.476Z,8.95
2022-10-11T00:22:38.021Z,8.84
2022-10-11T00:27:39.327Z,8.56
2022-10-11T00:32:40.669Z,8.39
2022-10-11T00:37:42.129Z,8.27
2022-10-11T00:42:43.575Z,8.10
2022-10-11T00:47:44.987Z,7.85
2022-10-11T00:52:50.052Z,7.68
2022-10-11T00:57:52.743Z,7.57
2022-10-11T01:02:54.462Z,7.52
2022-10-11T01:07:55.842Z,7.45
2022-10-11T01:13:00.146Z,7.29
2022-10-11T01:18:20.478Z,7.22
2022-10-11T01:23:30.989Z,7.11
2022-10-11T01:28:42.464Z,6.97
2022-10-11T01:33:48.764Z,6.81
2022-10-11T01:38:57.287Z,6.69
2022-10-11T01:44:00.150Z,6.65
2022-10-11T01:49:02.216Z,6.58
2022-10-11T01:54:18.342Z,6.58
2022-10-11T01:59:38.148Z,6.59
2022-10-11T02:04:43.529Z,6.55
2022-10-11T02:09:48.255Z,6.39
2022-10-11T02:14:50.803Z,6.30
2022-10-11T02:19:53.442Z,6.31
2022-10-11T02:24:56.802Z,6.19
2022-10-11T02:30:00.084Z,6.08
2022-10-11T02:35:02.092Z,6.01
2022-10-11T02:40:12.462Z,5.96
2022-10-11T02:45:24.031Z,5.99
2022-10-11T02:50:26.231Z,6.07
2022-10-11T02:55:27.531Z,6.19
2022-10-11T03:00:29.295Z,6.28
2022-10-11T03:05:30.597Z,6.33
2022-10-11T03:10:31.896Z,6.51
2022-10-11T03:15:33.265Z,6.52
2022-10-11T03:20:34.883Z,6.58
2022-10-11T03:25:36.276Z,6.62
2022-10-11T03:30:37.578Z,6.75
2022-10-11T03:35:40.593Z,6.93
2022-10-11T03:40:42.645Z,7.08
2022-10-11T03:45:44.047Z,7.19
2022-10-11T03:50:45.354Z,7.22
2022-10-11T03:55:46.679Z,7.24
2022-10-11T04:00:48.051Z,7.41
2022-10-11T04:05:49.443Z,7.55
2022-10-11T04:10:50.767Z,7.59
2022-10-11T04:15:52.063Z,7.51
2022-10-11T04:20:53.378Z,7.58
2022-10-11T04:25:54.687Z,7.62
2022-10-11T04:30:55.994Z,7.58
2022-10-11T04:35:57.327Z,7.51
2022-10-11T04:41:08.108Z,7.72
2022-10-11T04:46:10.572Z,7.76
2022-10-11T04:51:12.423Z,7.73
2022-10-11T04:56:15.127Z,7.76
2022-10-11T05:01:16.503Z,7.99
2022-10-11T05:06:17.863Z,7.89
2022-10-11T05:11:19.210Z,7.76
2022-10-11T05:16:20.520Z,7.64
2022-10-11T05:21:23.727Z,7.65
2022-10-11T05:26:26.198Z,7.37
2022-10-11T05:31:27.549Z,7.07
2022-10-11T05:36:28.870Z,6.85
2022-10-11T05:41:30.192Z,6.94
2022-10-11T05:46:31.716Z,7.04
2022-10-11T05:51:33.045Z,7.03
2022-10-11T05:56:34.354Z,7.04
2022-10-11T06:01:35.770Z,7.10
2022-10-11T06:06:37.186Z,7.00
2022-10-11T06:11:41.231Z,6.86
2022-10-11T06:16:42.562Z,6.89
2022-10-11T06:21:45.712Z,7.19
2022-10-11T06:26:48.514Z,7.44
2022-10-11T06:31:49.824Z,7.73
2022-10-11T06:36:51.522Z,8.03
2022-10-11T06:41:52.823Z,8.30
2022-10-11T06:46:54.119Z,8.37
2022-10-11T06:51:55.431Z,8.40
2022-10-11T06:56:56.741Z,8.50
2022-10-11T07:01:58.047Z,8.69
2022-10-11T07:06:59.370Z,8.87
2022-10-11T07:12:00.695Z,9.06
2022-10-11T07:17:02.297Z,9.32
2022-10-11T07:22:03.693Z,9.38
2022-10-11T07:27:04.987Z,9.52
2022-10-11T07:32:06.299Z,9.64
2022-10-11T07:37:08.172Z,9.74
2022-10-11T07:42:10.001Z,9.92
2022-10-11T07:47:11.672Z,9.82
2022-10-11T07:52:13.024Z,10.14
2022-10-11T07:57:15.455Z,10.25
2022-10-11T08:02:16.817Z,10.85
2022-10-11T08:07:18.174Z,10.75
2022-10-11T08:12:19.484Z,11.07
2022-10-11T08:17:20.829Z,11.62
2022-10-11T08:22:22.175Z,12.27
2022-10-11T08:27:23.510Z,14.69
2022-10-11T08:32:24.838Z,12.25
2022-10-11T08:37:26.143Z,12.58
2022-10-11T08:42:35.476Z,12.69
2022-10-11T08:47:38.555Z,13.27
2022-10-11T08:52:47.569Z,12.69
2022-10-11T08:57:52.241Z,13.21
2022-10-11T09:03:14.214Z,14.97
2022-10-11T09:08:18.612Z,18.29
2022-10-11T09:13:34.512Z,18.51
2022-10-11T09:18:39.233Z,18.63
2022-10-11T09:23:55.518Z,21.91
2022-10-11T09:29:01.331Z,22.15
2022-10-11T09:34:10.354Z,19.81
2022-10-11T09:39:11.635Z,18.17
2022-10-11T09:44:19.792Z,19.26
2022-10-11T09:49:22.973Z,19.45
2022-10-11T09:54:37.999Z,20.21
2022-10-11T09:59:39.360Z,18.91
2022-10-11T10:04:55.638Z,21.75
2022-10-11T10:15:04.831Z,21.25
2022-10-11T10:20:06.964Z,23.31
2022-10-11T10:25:20.408Z,23.94
2022-10-11T10:30:21.936Z,24.60
2022-10-11T10:35:31.365Z,22.96
2022-10-11T10:40:37.630Z,23.64
2022-10-11T10:45:49.398Z,23.17
2022-10-11T10:50:59.243Z,21.76
2022-10-11T10:56:08.493Z,22.54
2022-10-11T11:01:22.554Z,25.07
2022-10-11T11:06:28.443Z,24.59
2022-10-11T11:11:40.116Z,24.97
2022-10-11T11:16:47.724Z,22.49
2022-10-11T11:22:01.739Z,20.87
2022-10-11T11:27:03.025Z,23.28
2022-10-11T11:32:23.047Z,20.94
2022-10-11T11:37:36.072Z,21.44
2022-10-11T11:42:48.990Z,23.01
2022-10-11T11:48:05.337Z,21.99
2022-10-11T11:53:12.329Z,19.50
2022-10-11T11:58:32.359Z,18.51
2022-10-11T12:03:41.561Z,21.03
2022-10-11T12:08:44.639Z,22.14
2022-10-11T12:13:46.540Z,22.84
2022-10-11T12:18:59.697Z,21.16
2022-10-11T12:24:09.868Z,19.79
2022-10-11T12:29:18.126Z,17.67
2022-10-11T12:34:30.879Z,19.14
2022-10-11T12:39:47.445Z,19.38
2022-10-11T12:45:07.666Z,19.47
2022-10-11T12:50:18.698Z,20.32
2022-10-11T12:55:30.039Z,18.27
2022-10-11T13:00:34.139Z,19.66
2022-10-11T13:05:45.075Z,19.72
2022-10-11T13:10:47.967Z,19.63
2022-10-11T13:15:51.441Z,20.22
2022-10-11T13:20:52.827Z,20.14
2022-10-11T13:25:55.363Z,20.05
2022-10-11T13:30:58.566Z,19.68
2022-10-11T13:36:01.414Z,19.08
2022-10-11T13:41:04.554Z,19.40
2022-10-11T13:46:20.886Z,19.32
2022-10-11T13:51:32.420Z,19.23
2022-10-11T13:56:42.602Z,19.35
2022-10-11T14:01:45.166Z,18.39
2022-10-11T14:06:54.855Z,19.51
2022-10-11T14:12:16.189Z,19.01
2022-10-11T14:17:19.180Z,18.05
2022-10-11T14:22:20.486Z,17.12
2022-10-11T14:27:23.792Z,17.26
2022-10-11T14:32:30.533Z,16.78
2022-10-11T14:37:31.940Z,16.33
2022-10-11T14:42:33.262Z,15.79
2022-10-11T14:47:40.568Z,15.54
2022-10-11T14:52:44.041Z,15.34
2022-10-11T14:57:45.441Z,15.28
2022-10-11T15:02:46.921Z,15.07
2022-10-11T15:07:48.399Z,14.71
2022-10-11T15:12:50.346Z,14.49
2022-10-11T15:17:53.724Z,14.27
2022-10-11T15:22:56.174Z,14.17
2022-10-11T15:27:57.921Z,14.03
2022-10-11T15:32:59.232Z,13.94
2022-10-11T15:38:00.661Z,13.83
2022-10-11T15:43:02.606Z,13.62
2022-10-11T15:48:04.346Z,13.55
2022-10-11T15:53:05.709Z,13.56
2022-10-11T15:58:19.782Z,13.29
2022-10-11T16:03:22.384Z,13.01
2022-10-11T16:08:24.070Z,12.70
2022-10-11T16:13:25.386Z,12.36
2022-10-11T16:18:30.128Z,12.16
2022-10-11T16:23:35.931Z,11.91
2022-10-11T16:28:37.784Z,11.64
2022-10-11T16:33:45.550Z,11.42
2022-10-11T16:38:47.332Z,11.26
2022-10-11T16:43:52.442Z,11.15
2022-10-11T16:48:55.477Z,11.05
2022-10-11T16:53:56.864Z,10.77
2022-10-11T16:58:58.292Z,10.51
2022-10-11T17:03:59.879Z,10.19
2022-10-11T17:09:01.986Z,9.98
2022-10-11T17:14:04.094Z,9.84
2022-10-11T17:19:08.736Z,9.63
2022-10-11T17:24:10.222Z,9.39
2022-10-11T17:29:12.912Z,8.97
2022-10-11T17:34:15.318Z,8.90
2022-10-11T17:39:18.110Z,8.81
2022-10-11T17:44:20.162Z,8.81
2022-10-11T17:49:21.471Z,8.67
2022-10-11T17:54:22.771Z,8.47
2022-10-11T17:59:27.447Z,8.27
2022-10-11T18:04:30.044Z,8.08
2022-10-11T18:09:32.484Z,8.02
2022-10-11T18:14:33.784Z,7.92
2022-10-11T18:19:35.104Z,7.82
2022-10-11T18:24:36.411Z,7.69
2022-10-11T18:29:37.767Z,7.57
2022-10-11T18:34:39.159Z,7.47
2022-10-11T18:39:40.477Z,7.37
2022-10-11T18:44:41.802Z,7.18
2022-10-11T18:49:43.107Z,7.00
2022-10-11T18:54:44.712Z,6.90
2022-10-11T18:59:46.055Z,6.77
2022-10-11T19:04:52.420Z,6.62
2022-10-11T19:09:53.739Z,6.53
2022-10-11T19:14:55.039Z,6.43
2022-10-11T19:19:56.409Z,6.34
2022-10-11T19:24:57.776Z,6.28
2022-10-11T19:30:00.356Z,6.13
2022-10-11T19:35:01.710Z,6.14
2022-10-11T19:40:03.942Z,6.11
2022-10-11T19:45:05.597Z,6.02
2022-10-11T19:50:07.200Z,5.98
2022-10-11T19:55:08.754Z,5.91
2022-10-11T20:00:10.316Z,5.83
2022-10-11T20:05:11.639Z,5.73
2022-10-11T20:10:12.959Z,5.60
2022-10-11T20:15:14.491Z,5.51
2022-10-11T20:20:16.877Z,5.38
2022-10-11T20:25:18.178Z,5.26
2022-10-11T20:30:19.493Z,5.22
2022-10-11T20:35:20.788Z,5.15
2022-10-11T20:40:22.070Z,5.13
2022-10-11T20:45:23.360Z,5.07
2022-10-11T20:50:24.662Z,5.02
2022-10-11T20:55:25.958Z,4.92
2022-10-11T21:00:27.321Z,4.88
2022-10-11T21:05:28.626Z,4.78
2022-10-11T21:10:30.526Z,4.70
2022-10-11T21:15:32.315Z,4.76
2022-10-11T21:20:37.143Z,4.65
2022-10-11T21:25:38.559Z,4.64
2022-10-11T21:30:39.910Z,4.57
2022-10-11T21:35:41.350Z,4.50
2022-10-11T21:40:42.681Z,4.41
2022-10-11T21:45:44.038Z,4.32
2022-10-11T21:50:51.617Z,4.28
2022-10-11T21:55:59.314Z,4.19
2022-10-11T22:01:00.846Z,4.10
2022-10-11T22:06:03.395Z,4.06
2022-10-11T22:11:04.872Z,3.97
2022-10-11T22:16:07.198Z,3.90
2022-10-11T22:21:18.643Z,3.85
2022-10-11T22:26:21.750Z,3.89
2022-10-11T22:31:23.380Z,3.82
2022-10-11T22:36:25.209Z,3.78
2022-10-11T22:41:26.560Z,3.76
2022-10-11T22:46:28.124Z,3.77
2022-10-11T22:51:29.444Z,3.76
2022-10-11T22:56:30.755Z,3.58
2022-10-11T23:01:32.078Z,3.55
2022-10-11T23:06:33.393Z,3.50
2022-10-11T23:11:34.824Z,3.42
2022-10-11T23:16:36.303Z,3.34
2022-10-11T23:21:37.605Z,3.26
2022-10-11T23:26:38.927Z,3.18
2022-10-11T23:31:40.259Z,3.13
2022-10-11T23:36:41.664Z,3.05
2022-10-11T23:41:43.592Z,2.98
2022-10-11T23:46:45.049Z,2.90
2022-10-11T23:51:46.392Z,2.87
2022-10-11T23:56:47.690Z,2.88
